Time;durP1;ratioP1;P1;durP2;ratioP2;P2;SDS_P1;SDS_P2;PMS_P1;PMS_P2;Temp;Humidity;BMP_temperature;BMP_pressure;BME280_temperature;BME280_humidity;BME280_pressure;Samples;Min_cycle;Max_cycle;Signal;HPM_P1;HPM_P2
2023/02/25 00:02:13;;;;;;;2.22;1.95;;;4.20;99.90;;;;;;5013542;28;20045;-78
2023/02/25 00:04:40;;;;;;;6.65;2.80;;;4.20;99.90;;;;;;5005359;28;20034;-78
2023/02/25 00:07:07;;;;;;;1.83;1.25;;;4.10;99.90;;;;;;5006590;28;20382;-79
2023/02/25 00:09:33;;;;;;;3.08;2.42;;;4.00;99.90;;;;;;5007787;28;20228;-78
2023/02/25 00:11:59;;;;;;;5.25;2.15;;;4.00;99.90;;;;;;5007461;28;20049;-79
2023/02/25 00:14:26;;;;;;;3.13;2.00;;;4.00;99.90;;;;;;5002374;28;20045;-79
2023/02/25 00:16:56;;;;;;;2.00;1.90;;;4.00;99.90;;;;;;5003567;28;20030;-80
2023/02/25 00:19:25;;;;;;;4.10;1.98;;;3.90;99.90;;;;;;5006289;28;20030;-79
2023/02/25 00:21:51;;;;;;;1.50;1.27;;;3.90;99.90;;;;;;5006974;28;20069;-78
2023/02/25 00:24:17;;;;;;;1.50;1.40;;;3.90;99.90;;;;;;5006636;28;20592;-79
2023/02/25 00:26:43;;;;;;;1.10;1.10;;;3.90;99.90;;;;;;5007804;28;20031;-79
2023/02/25 00:29:09;;;;;;;2.15;1.25;;;3.70;99.90;;;;;;5006533;28;20517;-79
2023/02/25 00:31:35;;;;;;;3.67;1.95;;;3.70;99.90;;;;;;5011179;28;20046;-78
2023/02/25 00:34:01;;;;;;;2.28;2.08;;;3.70;99.90;;;;;;5008673;28;20034;-79
2023/02/25 00:36:26;;;;;;;2.50;2.00;;;3.70;99.90;;;;;;5010471;28;20050;-79
2023/02/25 00:38:55;;;;;;;1.13;1.10;;;3.70;99.90;;;;;;5019382;28;20037;-79
2023/02/25 00:41:24;;;;;;;2.78;1.80;;;3.60;99.90;;;;;;5016371;28;20037;-79
2023/02/25 00:44:00;;;;;;;3.88;1.80;;;3.60;99.90;;;;;;5024580;28;20470;-78
2023/02/25 00:46:28;;;;;;;1.77;1.63;;;3.70;99.90;;;;;;5021448;28;20402;-79
2023/02/25 00:48:53;;;;;;;0.77;0.77;;;3.70;99.90;;;;;;5012267;28;20033;-79
2023/02/25 00:51:25;;;;;;;4.00;1.83;;;3.70;99.90;;;;;;5016844;28;20042;-79
2023/02/25 00:53:52;;;;;;;2.80;1.80;;;3.70;99.90;;;;;;5024116;28;20040;-79
2023/02/25 00:56:18;;;;;;;1.65;1.08;;;3.60;99.90;;;;;;5021374;28;20036;-79
2023/02/25 00:58:49;;;;;;;3.28;2.00;;;3.60;99.90;;;;;;5016064;28;20545;-79
2023/02/25 01:01:21;;;;;;;1.25;1.25;;;3.60;99.90;;;;;;5027371;28;20037;-78
2023/02/25 01:03:48;;;;;;;0.93;0.93;;;3.50;99.90;;;;;;5026416;28;20034;-77
2023/02/25 01:06:17;;;;;;;1.88;1.48;;;3.40;99.90;;;;;;5010036;28;20099;-78
2023/02/25 01:08:45;;;;;;;;;;;3.40;99.90;;;;;;5020533;28;20033;-78
2023/02/25 01:11:12;;;;;;;;;;;3.40;99.90;;;;;;5022015;28;19996;-78
2023/02/25 01:13:42;;;;;;;1.00;1.00;;;3.30;99.90;;;;;;5016521;28;19933;-78
2023/02/25 01:16:15;;;;;;;1.48;1.38;;;3.30;99.90;;;;;;5018723;28;20031;-79
2023/02/25 01:18:45;;;;;;;0.88;0.88;;;3.30;99.90;;;;;;5016984;28;20045;-78
2023/02/25 01:21:16;;;;;;;3.55;1.45;;;3.30;99.90;;;;;;5014438;28;20037;-78
2023/02/25 01:23:44;;;;;;;2.28;2.05;;;3.30;99.90;;;;;;5023633;28;20486;-78
2023/02/25 01:26:10;;;;;;;1.55;1.42;;;3.30;99.90;;;;;;5017712;28;20030;-78
2023/02/25 01:28:35;;;;;;;0.63;0.63;;;3.20;99.90;;;;;;5017651;28;20537;-78
2023/02/25 01:31:01;;;;;;;1.27;1.25;;;3.20;99.90;;;;;;5025496;28;20541;-78
2023/02/25 01:33:27;;;;;;;1.65;1.55;;;3.20;99.90;;;;;;5023703;28;20057;-78
2023/02/25 01:35:52;;;;;;;1.15;1.15;;;3.20;99.90;;;;;;5018295;28;20050;-79
2023/02/25 01:38:18;;;;;;;2.00;1.67;;;3.20;99.90;;;;;;5021931;28;20034;-78
2023/02/25 01:40:44;;;;;;;1.92;1.73;;;3.20;99.90;;;;;;5019921;28;20519;-78
2023/02/25 01:43:15;;;;;;;1.70;1.60;;;3.20;99.90;;;;;;5024961;28;20045;-79
2023/02/25 01:45:43;;;;;;;1.80;1.27;;;3.10;99.90;;;;;;5015012;28;20033;-79
2023/02/25 01:48:15;;;;;;;1.08;1.08;;;3.10;99.90;;;;;;5020033;28;20084;-78
2023/02/25 01:50:46;;;;;;;1.98;1.77;;;3.10;99.90;;;;;;5016942;28;20069;-79
2023/02/25 01:53:14;;;;;;;2.83;1.77;;;3.10;99.90;;;;;;5024082;28;20048;-78
2023/02/25 01:55:41;;;;;;;4.25;2.25;;;3.10;99.90;;;;;;5016472;28;20030;-78
2023/02/25 01:58:08;;;;;;;2.92;2.17;;;3.20;99.90;;;;;;5019900;28;20026;-79
2023/02/25 02:00:36;;;;;;;3.17;1.60;;;3.20;99.90;;;;;;5014649;28;20026;-83
2023/02/25 02:03:03;;;;;;;3.72;2.40;;;3.20;99.90;;;;;;5015065;28;20089;-84
2023/02/25 02:06:07;;;;;;;2.80;2.60;;;3.20;99.90;;;;;;5017825;28;20038;-84
2023/02/25 02:08:34;;;;;;;3.38;2.00;;;3.20;99.90;;;;;;5023192;28;20445;-85
2023/02/25 02:11:01;;;;;;;2.50;2.10;;;3.20;99.90;;;;;;5021892;28;20081;-84
2023/02/25 02:13:28;;;;;;;1.95;1.83;;;3.20;99.90;;;;;;5014187;28;20038;-83
2023/02/25 02:16:07;;;;;;;2.05;1.85;;;3.20;99.90;;;;;;5024437;28;20548;-84
2023/02/25 02:18:38;;;;;;;1.88;1.60;;;3.10;99.90;;;;;;5025447;28;20144;-83
2023/02/25 02:21:10;;;;;;;3.00;2.67;;;3.10;99.90;;;;;;5019261;28;20038;-83
2023/02/25 02:24:21;;;;;;;0.80;0.80;;;3.10;99.90;;;;;;5016804;28;20176;-84
2023/02/25 02:26:59;;;;;;;1.67;1.58;;;3.10;99.90;;;;;;5012250;28;20069;-84
2023/02/25 02:29:57;;;;;;;1.92;1.83;;;3.10;99.90;;;;;;5021378;28;20089;-86
2023/02/25 02:32:35;;;;;;;;;;;3.10;99.90;;;;;;5027412;28;20042;-85
2023/02/25 02:35:21;;;;;;;1.70;1.60;;;3.10;99.90;;;;;;5020969;28;19922;-86
2023/02/25 02:38:13;;;;;;;2.78;2.38;;;3.10;99.90;;;;;;5021936;28;20046;-85
2023/02/25 02:41:11;;;;;;;2.88;2.28;;;3.00;99.90;;;;;;5023719;28;20030;-84
2023/02/25 02:43:46;;;;;;;4.32;2.90;;;3.10;99.90;;;;;;5014804;28;20034;-86
2023/02/25 02:46:26;;;;;;;5.70;2.83;;;3.10;99.90;;;;;;5019831;28;20034;-85
2023/02/25 02:49:10;;;;;;;2.67;2.47;;;3.10;99.90;;;;;;5023324;28;20021;-84
2023/02/25 02:51:43;;;;;;;2.92;2.17;;;3.10;99.90;;;;;;5028856;28;20108;-85
2023/02/25 02:54:11;;;;;;;6.15;3.28;;;3.00;99.90;;;;;;5022003;28;20030;-84
2023/02/25 02:56:41;;;;;;;2.95;2.40;;;3.10;99.90;;;;;;5025113;28;20037;-85
2023/02/25 02:59:14;;;;;;;5.18;4.20;;;3.00;99.90;;;;;;5016199;28;20085;-84
2023/02/25 03:01:51;;;;;;;3.22;2.65;;;3.10;99.90;;;;;;5017374;28;20049;-83
2023/02/25 03:04:23;;;;;;;5.68;4.50;;;3.10;99.90;;;;;;5016076;28;20030;-84
2023/02/25 03:06:53;;;;;;;5.28;3.17;;;3.10;99.90;;;;;;5018427;28;20034;-83
2023/02/25 03:09:26;;;;;;;4.47;3.25;;;3.10;99.90;;;;;;5010919;28;20045;-86
2023/02/25 03:11:52;;;;;;;5.00;3.28;;;3.10;99.90;;;;;;5022364;28;20042;-85
2023/02/25 03:14:17;;;;;;;3.08;2.70;;;3.10;99.90;;;;;;5021543;28;20076;-84
2023/02/25 03:16:44;;;;;;;2.78;2.47;;;3.10;99.90;;;;;;5028637;28;20030;-84
2023/02/25 03:19:14;;;;;;;1.95;1.80;;;3.10;99.90;;;;;;5011416;28;20025;-85
2023/02/25 03:21:51;;;;;;;2.88;2.65;;;3.00;99.90;;;;;;5022257;28;20033;-85
2023/02/25 03:24:21;;;;;;;9.75;4.05;;;3.00;99.90;;;;;;5008197;28;20038;-85
2023/02/25 03:26:51;;;;;;;5.55;3.97;;;3.00;99.90;;;;;;5015539;28;20041;-85
2023/02/25 03:29:20;;;;;;;4.47;3.28;;;3.00;99.90;;;;;;5033773;28;20026;-85
2023/02/25 03:32:05;;;;;;;4.22;3.13;;;3.00;99.90;;;;;;5019572;28;20056;-83
2023/02/25 03:34:38;;;;;;;6.07;3.83;;;3.00;99.90;;;;;;5014709;28;20041;-84
2023/02/25 03:37:36;;;;;;;2.97;2.60;;;3.00;99.90;;;;;;5015661;28;20030;-84
2023/02/25 03:40:10;;;;;;;2.63;2.40;;;3.00;99.90;;;;;;5030277;28;20076;-84
2023/02/25 03:42:42;;;;;;;3.33;2.85;;;3.00;99.90;;;;;;5022250;28;20032;-84
2023/02/25 03:45:11;;;;;;;2.58;2.42;;;3.00;99.90;;;;;;5011214;28;20044;-84
2023/02/25 03:47:38;;;;;;;3.10;2.80;;;2.90;99.90;;;;;;5015770;28;20101;-84
2023/02/25 03:50:26;;;;;;;9.30;4.93;;;3.00;99.90;;;;;;5014000;28;20473;-83
2023/02/25 03:52:52;;;;;;;;;;;2.90;99.90;;;;;;5021583;28;20038;-85
2023/02/25 03:55:18;;;;;;;5.22;3.58;;;3.00;99.90;;;;;;5019388;28;19910;-86
2023/02/25 03:57:50;;;;;;;5.25;3.45;;;3.00;99.90;;;;;;5017515;28;20072;-85
2023/02/25 04:00:23;;;;;;;4.75;3.95;;;2.90;99.90;;;;;;5016428;28;20021;-85
2023/02/25 04:02:50;;;;;;;4.97;4.43;;;3.00;99.90;;;;;;5020214;28;20029;-86
2023/02/25 04:05:17;;;;;;;6.63;4.65;;;2.90;99.90;;;;;;5009736;28;20069;-83
2023/02/25 04:07:43;;;;;;;5.57;3.72;;;2.90;99.90;;;;;;5023363;28;20049;-84
2023/02/25 04:10:13;;;;;;;6.50;4.20;;;2.90;99.90;;;;;;5010743;28;20041;-85
2023/02/25 04:12:39;;;;;;;4.53;3.00;;;2.90;99.90;;;;;;5025774;28;20443;-84
2023/02/25 04:15:06;;;;;;;5.93;3.85;;;2.90;99.90;;;;;;5017656;28;20033;-84
2023/02/25 04:17:33;;;;;;;2.88;2.53;;;2.90;99.90;;;;;;5016922;28;20032;-84
2023/02/25 04:19:59;;;;;;;5.90;3.95;;;2.90;99.90;;;;;;5017374;28;20662;-85
2023/02/25 04:22:25;;;;;;;3.17;2.67;;;2.80;99.90;;;;;;5019005;28;20383;-84
2023/02/25 04:24:51;;;;;;;9.27;4.68;;;2.80;99.90;;;;;;5020419;28;20060;-85
2023/02/25 04:27:16;;;;;;;6.70;4.00;;;2.80;99.90;;;;;;5018604;28;20041;-84
2023/02/25 04:29:43;;;;;;;4.85;3.40;;;2.80;99.90;;;;;;5019887;28;20120;-84
2023/02/25 04:32:10;;;;;;;3.33;2.53;;;2.90;99.90;;;;;;5018722;28;20034;-85
2023/02/25 04:34:36;;;;;;;5.15;3.95;;;2.80;99.90;;;;;;5011050;28;20093;-84
2023/02/25 04:37:03;;;;;;;6.82;4.35;;;2.80;99.90;;;;;;5018290;28;20027;-85
2023/02/25 04:39:29;;;;;;;6.22;3.65;;;2.80;99.90;;;;;;5018439;28;20014;-84
2023/02/25 04:41:55;;;;;;;10.35;6.25;;;2.80;99.90;;;;;;5016001;28;20056;-85
2023/02/25 04:44:21;;;;;;;4.45;4.03;;;2.70;99.90;;;;;;5020694;28;20530;-87
2023/02/25 04:46:50;;;;;;;4.10;2.80;;;2.70;99.90;;;;;;5019812;28;20857;-83
2023/02/25 04:49:20;;;;;;;6.80;4.38;;;2.70;99.90;;;;;;5018029;28;20038;-84
2023/02/25 04:51:46;;;;;;;8.50;4.05;;;2.60;99.90;;;;;;5020206;28;20064;-86
2023/02/25 04:54:12;;;;;;;2.65;2.42;;;2.70;99.90;;;;;;5015689;28;20029;-85
2023/02/25 04:56:38;;;;;;;2.50;2.28;;;2.70;99.90;;;;;;5018076;28;20401;-84
2023/02/25 04:59:10;;;;;;;7.50;2.92;;;2.70;99.90;;;;;;5014277;28;20927;-86
2023/02/25 05:01:37;;;;;;;2.95;1.48;;;2.70;99.90;;;;;;5001702;28;20042;-85
2023/02/25 05:04:03;;;;;;;2.00;1.90;;;2.70;99.90;;;;;;5010840;28;20034;-84
2023/02/25 05:06:29;;;;;;;3.30;3.00;;;2.70;99.90;;;;;;5016361;28;20038;-86
2023/02/25 05:08:56;;;;;;;1.52;1.48;;;2.70;99.90;;;;;;5016951;28;20149;-84
2023/02/25 05:11:23;;;;;;;7.70;4.15;;;2.70;99.90;;;;;;5018706;28;20045;-85
2023/02/25 05:13:49;;;;;;;6.40;4.40;;;2.70;99.90;;;;;;5026069;28;20044;-84
2023/02/25 05:16:16;;;;;;;7.72;3.92;;;2.80;99.90;;;;;;5019810;28;20074;-85
2023/02/25 05:18:44;;;;;;;3.33;2.70;;;2.80;99.90;;;;;;5006334;28;20054;-86
2023/02/25 05:21:12;;;;;;;2.77;2.47;;;2.80;99.90;;;;;;5013806;28;20026;-85
2023/02/25 05:23:39;;;;;;;3.45;1.52;;;2.70;99.90;;;;;;5027589;28;20091;-86
2023/02/25 05:26:09;;;;;;;6.72;4.38;;;2.60;99.90;;;;;;5021270;28;20037;-86
2023/02/25 05:28:35;;;;;;;5.57;3.63;;;2.60;99.90;;;;;;5015672;28;20030;-85
2023/02/25 05:31:08;;;;;;;3.65;2.33;;;2.50;99.90;;;;;;5014855;28;20038;-85
2023/02/25 05:33:36;;;;;;;4.72;2.67;;;2.50;99.90;;;;;;4999806;28;20029;-87
2023/02/25 05:36:08;;;;;;;11.25;3.42;;;2.40;99.90;;;;;;5022701;28;20050;-85
2023/02/25 05:38:35;;;;;;;2.85;2.58;;;2.50;99.90;;;;;;5013717;28;20079;-86
2023/02/25 05:41:02;;;;;;;4.35;2.70;;;2.40;99.90;;;;;;5017371;28;20044;-85
2023/02/25 05:43:28;;;;;;;5.13;3.30;;;2.40;99.90;;;;;;5024558;28;20271;-85
2023/02/25 05:45:56;;;;;;;6.50;3.50;;;2.40;99.90;;;;;;5002564;28;20033;-85
2023/02/25 05:48:22;;;;;;;4.72;2.40;;;2.30;99.90;;;;;;5000383;28;20049;-85
2023/02/25 05:50:49;;;;;;;3.33;2.15;;;2.20;99.90;;;;;;5023142;28;20029;-86
2023/02/25 05:53:18;;;;;;;1.08;1.08;;;2.20;99.90;;;;;;5024158;28;20042;-87
2023/02/25 05:55:45;;;;;;;2.60;2.13;;;2.10;99.90;;;;;;5017170;28;20081;-84
2023/02/25 05:58:11;;;;;;;3.80;2.60;;;2.10;99.90;;;;;;5023595;28;20026;-85
2023/02/25 06:00:37;;;;;;;2.50;1.75;;;2.10;99.90;;;;;;5017448;28;20038;-86
2023/02/25 06:03:04;;;;;;;6.25;3.53;;;2.10;99.90;;;;;;5014781;28;20030;-85
2023/02/25 06:05:30;;;;;;;4.95;3.30;;;2.10;99.90;;;;;;5026270;28;20029;-86
2023/02/25 06:08:01;;;;;;;1.85;1.70;;;2.20;99.90;;;;;;5019531;28;20026;-86
2023/02/25 06:10:27;;;;;;;4.30;2.67;;;2.20;99.90;;;;;;5000719;28;20033;-86
2023/02/25 06:12:53;;;;;;;1.85;1.75;;;2.10;99.90;;;;;;5021120;28;20049;-84
2023/02/25 06:15:18;;;;;;;2.78;2.00;;;2.20;99.90;;;;;;5013267;28;20038;-84
2023/02/25 06:17:44;;;;;;;6.15;3.17;;;2.20;99.90;;;;;;5019540;28;20557;-84
2023/02/25 06:20:16;;;;;;;1.83;1.67;;;2.30;99.90;;;;;;5024921;28;20022;-85
2023/02/25 06:22:45;;;;;;;3.67;2.15;;;2.30;99.90;;;;;;5017889;28;20038;-86
2023/02/25 06:25:10;;;;;;;3.42;1.73;;;2.30;99.90;;;;;;5027180;28;20033;-85
2023/02/25 06:27:36;;;;;;;3.13;2.53;;;2.30;99.90;;;;;;5018022;28;20061;-86
2023/02/25 06:30:03;;;;;;;2.92;2.63;;;2.30;99.90;;;;;;5025203;28;20045;-85
2023/02/25 06:32:29;;;;;;;6.97;3.00;;;2.30;99.90;;;;;;5007380;28;20037;-86
2023/02/25 06:34:55;;;;;;;2.85;1.67;;;2.30;99.90;;;;;;5013421;28;20547;-86
2023/02/25 06:37:21;;;;;;;5.25;3.30;;;2.30;99.90;;;;;;5021378;28;20022;-85
2023/02/25 06:39:47;;;;;;;6.68;3.13;;;2.40;99.90;;;;;;5021174;28;20031;-85
2023/02/25 06:42:13;;;;;;;6.43;3.38;;;2.50;99.90;;;;;;5010581;28;20022;-85
2023/02/25 06:44:39;;;;;;;5.30;3.03;;;2.50;99.90;;;;;;5025944;28;20032;-87
2023/02/25 06:47:04;;;;;;;3.92;2.78;;;2.50;99.90;;;;;;5008610;28;20044;-85
2023/02/25 06:49:30;;;;;;;3.58;2.83;;;2.50;99.90;;;;;;5024363;28;20037;-85
2023/02/25 06:51:56;;;;;;;3.20;2.38;;;2.50;99.90;;;;;;5039193;28;20029;-85
2023/02/25 06:54:21;;;;;;;4.03;2.40;;;2.50;99.90;;;;;;5019159;28;20033;-85
2023/02/25 06:56:47;;;;;;;4.72;3.05;;;2.50;99.90;;;;;;5027402;28;20022;-86
2023/02/25 06:59:13;;;;;;;9.50;3.85;;;2.50;99.90;;;;;;5032402;28;20034;-87
2023/02/25 07:01:39;;;;;;;3.88;2.78;;;2.60;99.90;;;;;;5024874;28;20044;-86
2023/02/25 07:04:05;;;;;;;3.55;2.45;;;2.60;99.90;;;;;;5008596;28;20062;-85
2023/02/25 07:06:31;;;;;;;2.47;2.30;;;2.60;99.90;;;;;;5003328;28;20318;-86
2023/02/25 07:08:57;;;;;;;4.15;3.13;;;2.60;99.90;;;;;;5020078;28;20119;-86
2023/02/25 07:11:33;;;;;;;5.28;2.88;;;2.70;99.90;;;;;;5023052;28;20025;-87
2023/02/25 07:13:59;;;;;;;5.05;2.58;;;2.70;99.90;;;;;;5020577;28;20030;-87
2023/02/25 07:16:25;;;;;;;4.25;2.15;;;2.70;99.90;;;;;;5022705;28;20060;-86
2023/02/25 07:18:51;;;;;;;7.13;3.50;;;2.70;99.90;;;;;;5023468;28;20110;-85
2023/02/25 07:21:18;;;;;;;4.80;2.65;;;2.70;99.90;;;;;;5022783;28;20030;-87
2023/02/25 07:23:45;;;;;;;2.67;1.30;;;2.80;99.90;;;;;;5017150;28;20030;-86
2023/02/25 07:26:15;;;;;;;4.10;2.53;;;2.80;99.90;;;;;;5023320;28;20049;-87
2023/02/25 07:28:42;;;;;;;4.20;2.92;;;2.80;99.90;;;;;;5029503;28;20026;-86
2023/02/25 07:31:17;;;;;;;6.90;2.28;;;2.80;99.90;;;;;;5017444;28;20058;-86
2023/02/25 07:33:49;;;;;;;5.57;3.00;;;2.90;99.90;;;;;;5020875;28;20026;-87
2023/02/25 07:36:15;;;;;;;4.65;2.83;;;2.80;99.90;;;;;;5021097;28;20056;-88
2023/02/25 07:38:41;;;;;;;6.15;2.33;;;2.80;99.90;;;;;;5018200;28;20054;-88
2023/02/25 07:41:10;;;;;;;6.07;3.10;;;2.80;99.90;;;;;;5027503;28;20034;-85
2023/02/25 07:43:36;;;;;;;;;;;2.90;99.90;;;;;;5009379;28;20033;-88
2023/02/25 07:46:02;;;;;;;3.80;2.10;;;2.90;99.90;;;;;;5007513;28;20016;-87
2023/02/25 07:48:28;;;;;;;4.18;2.20;;;2.90;99.90;;;;;;5016595;28;20026;-87
2023/02/25 07:50:54;;;;;;;2.97;2.65;;;2.90;99.90;;;;;;5019821;28;20045;-87
2023/02/25 07:53:21;;;;;;;3.00;2.72;;;2.90;99.90;;;;;;5026066;28;20082;-86
2023/02/25 07:55:47;;;;;;;2.45;2.25;;;2.90;99.90;;;;;;5021896;28;20117;-88
2023/02/25 07:58:13;;;;;;;3.33;1.58;;;2.90;99.90;;;;;;5022324;28;20494;-87
2023/02/25 08:00:40;;;;;;;6.57;1.92;;;2.90;99.90;;;;;;5016340;28;20042;-87
2023/02/25 08:03:07;;;;;;;5.85;2.60;;;2.90;99.90;;;;;;5014737;28;20089;-88
2023/02/25 08:05:34;;;;;;;2.10;2.00;;;2.90;99.90;;;;;;5026580;28;20041;-87
2023/02/25 08:08:00;;;;;;;9.70;1.88;;;2.90;99.90;;;;;;5027178;28;20086;-87
2023/02/25 08:10:26;;;;;;;3.83;2.22;;;3.00;99.90;;;;;;5017220;28;20599;-89
2023/02/25 08:12:51;;;;;;;5.22;2.90;;;3.00;99.90;;;;;;5025360;28;20076;-88
2023/02/25 08:15:17;;;;;;;4.13;2.05;;;3.00;99.90;;;;;;5021661;28;20022;-87
2023/02/25 08:17:43;;;;;;;6.15;2.05;;;3.00;99.90;;;;;;5021653;28;20515;-89
2023/02/25 08:20:10;;;;;;;2.83;2.53;;;3.10;99.90;;;;;;5022715;28;20025;-89
2023/02/25 08:22:36;;;;;;;1.98;1.88;;;3.00;99.90;;;;;;5025530;28;20454;-88
2023/02/25 08:25:02;;;;;;;3.15;1.85;;;3.00;99.90;;;;;;5022108;28;20049;-89
2023/02/25 08:27:29;;;;;;;3.05;2.13;;;3.10;99.90;;;;;;5022927;28;20030;-88
2023/02/25 08:29:56;;;;;;;2.28;1.63;;;3.10;99.90;;;;;;5016694;28;20044;-87
2023/02/25 08:32:23;;;;;;;1.88;1.63;;;3.20;99.90;;;;;;5036852;28;20046;-88
2023/02/25 08:34:50;;;;;;;4.30;2.93;;;3.20;99.90;;;;;;5024609;28;20045;-88
2023/02/25 08:37:16;;;;;;;4.35;2.05;;;3.30;99.90;;;;;;5029258;28;20033;-87
2023/02/25 08:39:42;;;;;;;7.82;1.85;;;3.40;99.90;;;;;;5027539;28;20038;-89
2023/02/25 08:42:10;;;;;;;1.77;1.67;;;3.30;99.90;;;;;;4995559;28;20756;-87
2023/02/25 08:44:36;;;;;;;3.38;2.55;;;3.40;99.90;;;;;;5023754;28;20069;-88
2023/02/25 08:47:03;;;;;;;1.85;1.75;;;3.50;99.90;;;;;;5025285;28;20042;-87
2023/02/25 08:49:29;;;;;;;1.48;1.38;;;3.50;99.90;;;;;;5018412;28;20084;-88
2023/02/25 08:51:55;;;;;;;2.92;1.77;;;3.40;99.90;;;;;;5028602;28;20041;-88
2023/02/25 08:54:21;;;;;;;6.97;2.10;;;3.30;99.90;;;;;;5015077;28;20022;-88
2023/02/25 08:56:49;;;;;;;1.17;1.08;;;3.40;99.90;;;;;;5026527;28;20026;-87
2023/02/25 08:59:16;;;;;;;2.05;1.38;;;3.50;99.90;;;;;;5023695;28;20041;-88
2023/02/25 09:01:47;;;;;;;1.75;1.45;;;3.50;99.90;;;;;;5021932;28;20046;-88
2023/02/25 09:04:18;;;;;;;3.53;1.60;;;3.60;99.90;;;;;;5021052;28;20036;-88
2023/02/25 09:06:46;;;;;;;2.53;1.83;;;3.60;99.90;;;;;;5030197;28;20037;-88
2023/02/25 09:09:13;;;;;;;;;;;3.70;99.90;;;;;;5026975;28;20010;-88
2023/02/25 09:11:40;;;;;;;5.20;1.52;;;3.80;99.90;;;;;;5016990;28;19951;-88
2023/02/25 09:14:06;;;;;;;1.30;1.20;;;4.00;99.90;;;;;;5017056;28;20547;-90
2023/02/25 09:16:32;;;;;;;1.13;1.10;;;3.90;99.90;;;;;;5021099;28;20054;-88
2023/02/25 09:18:57;;;;;;;1.20;1.20;;;3.90;99.90;;;;;;5019480;28;20041;-89
2023/02/25 09:21:23;;;;;;;2.22;1.10;;;3.70;99.90;;;;;;5022286;28;20054;-88
2023/02/25 09:23:50;;;;;;;1.25;1.13;;;3.60;99.90;;;;;;5026450;28;20018;-88
2023/02/25 09:26:17;;;;;;;1.45;0.90;;;3.60;99.90;;;;;;5036918;28;20029;-88
2023/02/25 09:28:44;;;;;;;2.50;1.17;;;3.60;99.90;;;;;;5007880;28;20038;-88
2023/02/25 09:31:10;;;;;;;2.92;1.40;;;3.70;99.90;;;;;;5021328;28;20074;-94
2023/02/25 09:33:37;;;;;;;2.60;1.40;;;3.70;99.90;;;;;;5024145;28;20126;-89
2023/02/25 09:36:08;;;;;;;7.38;1.67;;;3.80;99.90;;;;;;5015713;28;20061;-94
2023/02/25 09:38:35;;;;;;;2.30;1.13;;;4.00;99.90;;;;;;5025440;28;20029;-92
2023/02/25 09:41:01;;;;;;;1.75;1.08;;;4.10;99.90;;;;;;5012471;28;20034;-88
2023/02/25 09:43:38;;;;;;;1.00;0.95;;;4.20;99.90;;;;;;5025493;28;20080;-89
2023/02/25 09:46:14;;;;;;;0.80;0.80;;;4.50;99.90;;;;;;5023978;28;20794;-90
2023/02/25 09:48:54;;;;;;;1.65;0.95;;;4.90;99.90;;;;;;5028936;28;20029;-91
2023/02/25 09:51:30;;;;;;;3.83;1.92;;;4.70;99.90;;;;;;5011025;28;20053;-90
2023/02/25 09:54:20;;;;;;;2.60;1.13;;;4.60;99.90;;;;;;5043612;28;20118;-90
2023/02/25 09:56:45;;;;;;;1.10;1.00;;;4.40;99.90;;;;;;5022582;28;20046;-90
2023/02/25 09:59:17;;;;;;;3.55;1.30;;;4.30;99.90;;;;;;5021048;28;20038;-91
2023/02/25 10:02:18;;;;;;;1.77;1.35;;;4.20;99.90;;;;;;5030820;28;20041;-89
2023/02/25 10:05:22;;;;;;;1.00;0.93;;;4.10;99.90;;;;;;5025865;28;20061;-90
2023/02/25 10:08:19;;;;;;;2.50;1.35;;;3.90;99.90;;;;;;5019408;28;20085;-90
2023/02/25 10:10:54;;;;;;;2.05;1.15;;;3.80;99.90;;;;;;5027076;28;20046;-89
2023/02/25 10:13:19;;;;;;;2.20;1.45;;;3.80;99.90;;;;;;5023541;28;20033;-91
2023/02/25 10:16:01;;;;;;;2.58;0.95;;;3.90;99.90;;;;;;5032795;28;20640;-91
2023/02/25 10:18:53;;;;;;;2.38;1.77;;;4.00;99.90;;;;;;5028403;28;20034;-88
2023/02/25 10:21:48;;;;;;;1.05;1.05;;;4.10;99.90;;;;;;5028664;28;20034;-91
2023/02/25 10:24:33;;;;;;;5.57;1.52;;;4.10;99.90;;;;;;5036943;28;20036;-92
2023/02/25 10:27:06;;;;;;;3.08;1.40;;;4.10;99.90;;;;;;5028110;28;20029;-93
2023/02/25 10:29:39;;;;;;;2.53;1.20;;;4.10;99.90;;;;;;5026701;28;20097;-93
2023/02/25 10:32:16;;;;;;;1.00;1.00;;;4.30;99.90;;;;;;5019634;28;20058;-91
2023/02/25 10:34:42;;;;;;;2.92;1.27;;;4.40;99.90;;;;;;5020814;28;20085;-90
2023/02/25 10:37:17;;;;;;;2.42;0.93;;;4.40;99.90;;;;;;5024267;28;20039;-90
2023/02/25 10:39:47;;;;;;;0.73;0.73;;;4.40;99.90;;;;;;5024688;28;20035;-88
2023/02/25 10:42:14;;;;;;;0.68;0.68;;;4.50;99.90;;;;;;5025658;28;20037;-89
2023/02/25 10:44:40;;;;;;;1.67;0.95;;;4.50;99.90;;;;;;5021804;28;20036;-88
2023/02/25 10:47:12;;;;;;;2.83;0.98;;;4.60;99.90;;;;;;5023351;28;20030;-88
2023/02/25 10:49:38;;;;;;;1.88;0.85;;;4.60;99.90;;;;;;5022873;28;20030;-88
2023/02/25 10:52:13;;;;;;;1.75;1.13;;;4.40;99.90;;;;;;5016533;28;20048;-87
2023/02/25 10:54:52;;;;;;;1.42;0.90;;;4.40;99.90;;;;;;5011073;28;20771;-89
2023/02/25 10:57:26;;;;;;;1.25;1.00;;;4.20;99.90;;;;;;5022999;28;20034;-88
2023/02/25 11:00:12;;;;;;;6.18;1.05;;;4.00;99.90;;;;;;5027471;28;20037;-87
2023/02/25 11:02:42;;;;;;;1.23;1.13;;;4.00;99.90;;;;;;5020044;28;20049;-90
2023/02/25 11:05:35;;;;;;;1.63;0.88;;;4.00;99.90;;;;;;5020887;28;20561;-90
2023/02/25 11:08:05;;;;;;;1.30;1.10;;;4.00;99.90;;;;;;5025965;28;20081;-89
2023/02/25 11:10:31;;;;;;;1.77;1.20;;;4.00;99.90;;;;;;5022183;28;20026;-92
2023/02/25 11:12:58;;;;;;;3.75;1.73;;;4.00;99.90;;;;;;5034317;28;20053;-91
2023/02/25 11:15:35;;;;;;;1.67;1.20;;;3.90;99.90;;;;;;5022712;28;20030;-91
2023/02/25 11:18:26;;;;;;;2.83;1.33;;;3.90;99.90;;;;;;5024658;28;20041;-91
2023/02/25 11:21:14;;;;;;;2.10;1.10;;;3.80;99.90;;;;;;5024169;28;20038;-91
2023/02/25 11:23:48;;;;;;;0.65;0.65;;;3.80;99.90;;;;;;5020481;28;20030;-90
2023/02/25 11:26:29;;;;;;;0.80;0.77;;;3.90;99.90;;;;;;5025936;28;20026;-90
2023/02/25 11:28:58;;;;;;;10.68;2.35;;;4.00;99.90;;;;;;5006624;28;20042;-92
2023/02/25 11:31:39;;;;;;;1.90;1.10;;;4.10;99.90;;;;;;5039212;28;20054;-92
2023/02/25 11:34:25;;;;;;;2.47;0.80;;;4.00;99.90;;;;;;5008120;28;20034;-91
2023/02/25 11:36:51;;;;;;;6.78;1.25;;;4.10;99.90;;;;;;5018225;28;20042;-92
2023/02/25 11:39:26;;;;;;;1.00;1.00;;;4.20;99.90;;;;;;5029504;28;20050;-91
2023/02/25 11:41:56;;;;;;;2.28;1.48;;;4.40;99.90;;;;;;5020973;28;20045;-84
2023/02/25 11:44:25;;;;;;;1.13;1.02;;;4.40;99.90;;;;;;5023258;28;20060;-92
2023/02/25 11:46:59;;;;;;;1.95;1.48;;;4.30;96.90;;;;;;5021074;28;20037;-89
2023/02/25 11:49:40;;;;;;;1.02;0.95;;;4.30;98.60;;;;;;5013031;28;20041;-90
2023/02/25 11:52:32;;;;;;;1.17;1.08;;;4.50;99.90;;;;;;5020094;28;20066;-89
2023/02/25 11:55:23;;;;;;;1.88;1.30;;;4.50;92.80;;;;;;5019698;28;20934;-88
2023/02/25 11:58:05;;;;;;;1.88;1.30;;;4.60;95.00;;;;;;5011391;28;20061;-89
2023/02/25 12:00:36;;;;;;;1.38;1.27;;;4.80;99.80;;;;;;5017341;28;20026;-87
2023/02/25 12:03:30;;;;;;;1.05;1.02;;;5.40;96.00;;;;;;5023726;28;20039;-88
2023/02/25 12:06:37;;;;;;;0.93;0.93;;;5.40;91.30;;;;;;5016563;28;20022;-87
2023/02/25 12:09:37;;;;;;;0.98;0.98;;;5.10;87.30;;;;;;5041143;28;20140;-86
2023/02/25 12:12:40;;;;;;;1.98;0.93;;;5.00;90.70;;;;;;5038464;28;20125;-86
2023/02/25 12:15:47;;;;;;;5.00;1.20;;;4.80;92.40;;;;;;5016902;28;20041;-86
2023/02/25 12:18:35;;;;;;;1.15;1.15;;;4.70;88.90;;;;;;5009491;28;20022;-86
2023/02/25 12:21:13;;;;;;;1.00;1.00;;;4.70;94.60;;;;;;5023570;28;20106;-85
2023/02/25 12:24:02;;;;;;;3.42;1.38;;;4.60;94.30;;;;;;5027249;28;20030;-86
2023/02/25 12:26:51;;;;;;;2.45;1.38;;;4.60;95.40;;;;;;5019409;28;20026;-86
2023/02/25 12:30:01;;;;;;;0.77;0.77;;;4.80;95.60;;;;;;5014620;28;20063;-85
2023/02/25 12:32:52;;;;;;;2.25;1.35;;;4.70;96.50;;;;;;5026773;28;20094;-85
2023/02/25 12:35:44;;;;;;;1.67;1.10;;;4.70;90.90;;;;;;5016383;28;20940;-84
2023/02/25 12:38:57;;;;;;;1.25;1.05;;;4.70;96.60;;;;;;5017374;28;20040;-84
2023/02/25 12:41:31;;;;;;;1.77;0.80;;;4.80;93.50;;;;;;5011650;28;20080;-86
2023/02/25 12:44:28;;;;;;;2.47;0.90;;;4.80;94.60;;;;;;5017114;28;20053;-85
2023/02/25 12:47:24;;;;;;;0.77;0.77;;;4.80;95.00;;;;;;5017422;28;20029;-86
2023/02/25 12:49:49;;;;;;;5.05;2.28;;;4.80;91.10;;;;;;5022710;28;20038;-86
2023/02/25 12:52:24;;;;;;;1.13;1.10;;;4.60;91.20;;;;;;5022413;28;20036;-85
2023/02/25 12:55:15;;;;;;;4.13;1.00;;;4.60;90.90;;;;;;5007024;28;20544;-85
2023/02/25 12:58:02;;;;;;;2.40;1.10;;;4.50;93.10;;;;;;5029742;28;20453;-89
2023/02/25 13:00:46;;;;;;;1.70;1.25;;;4.50;92.50;;;;;;5023700;28;20064;-88
2023/02/25 13:03:20;;;;;;;0.85;0.85;;;4.50;91.30;;;;;;5026894;28;20041;-89
2023/02/25 13:06:23;;;;;;;1.15;1.15;;;4.60;95.60;;;;;;5023815;28;20026;-89
2023/02/25 13:09:01;;;;;;;1.40;1.17;;;4.50;92.00;;;;;;5015687;28;20068;-88
2023/02/25 13:11:51;;;;;;;1.33;0.73;;;4.50;94.10;;;;;;5017257;28;20101;-88
2023/02/25 13:14:57;;;;;;;0.95;0.95;;;4.60;94.60;;;;;;5028299;28;20042;-89
2023/02/25 13:17:49;;;;;;;0.90;0.90;;;4.70;93.00;;;;;;5027871;28;20044;-89
2023/02/25 13:20:36;;;;;;;1.73;1.23;;;4.80;93.00;;;;;;5027647;28;20060;-89
2023/02/25 13:23:17;;;;;;;1.40;1.10;;;4.90;94.40;;;;;;5022533;28;20026;-89
2023/02/25 13:25:52;;;;;;;2.25;1.08;;;4.90;92.80;;;;;;5030437;28;20027;-86